createdAt,value
2018-10-01T00:00:48.437Z,3.37
2018-10-01T00:03:16.644Z,2.77
2018-10-01T00:05:44.428Z,2.63
2018-10-01T00:08:12.218Z,2.67
2018-10-01T00:10:40.132Z,2.60
2018-10-01T00:13:08.067Z,2.70
2018-10-01T00:15:35.885Z,2.70
2018-10-01T00:18:03.685Z,2.70
2018-10-01T00:20:38.461Z,2.73
2018-10-01T00:23:06.265Z,2.47
2018-10-01T00:25:34.010Z,3.00
2018-10-01T00:28:01.801Z,2.47
2018-10-01T00:30:29.590Z,2.70
2018-10-01T00:32:57.404Z,2.83
2018-10-01T00:35:25.170Z,2.83
2018-10-01T00:37:52.966Z,2.60
2018-10-01T00:40:20.781Z,2.80
2018-10-01T00:42:48.547Z,2.57
2018-10-01T00:45:16.337Z,2.60
2018-10-01T00:47:44.146Z,2.50
2018-10-01T00:50:11.977Z,2.40
2018-10-01T00:52:39.845Z,2.40
2018-10-01T00:55:07.743Z,2.37
2018-10-01T00:57:36.854Z,2.63
2018-10-01T01:00:04.859Z,2.30
2018-10-01T01:02:32.657Z,2.50
2018-10-01T01:05:00.481Z,2.30
2018-10-01T01:07:28.252Z,2.57
2018-10-01T01:09:56.069Z,2.50
2018-10-01T01:12:23.917Z,2.60
2018-10-01T01:14:51.807Z,2.80
2018-10-01T01:17:19.929Z,2.80
2018-10-01T01:19:47.745Z,2.73
2018-10-01T01:22:15.571Z,2.67
2018-10-01T01:24:43.437Z,2.40
2018-10-01T01:27:11.254Z,2.60
2018-10-01T01:29:39.060Z,2.33
2018-10-01T01:32:07.061Z,2.50
2018-10-01T01:34:34.884Z,2.43
2018-10-01T01:37:02.711Z,2.60
2018-10-01T01:39:30.575Z,2.77
2018-10-01T01:41:58.395Z,2.63
2018-10-01T01:44:26.183Z,2.77
2018-10-01T01:46:53.970Z,2.67
2018-10-01T01:49:21.757Z,2.80
2018-10-01T01:51:49.545Z,2.73
2018-10-01T01:54:17.937Z,2.67
2018-10-01T01:56:45.837Z,2.57
2018-10-01T01:59:13.621Z,2.50
2018-10-01T02:01:41.373Z,2.50
2018-10-01T02:04:09.160Z,2.50
2018-10-01T02:06:36.979Z,2.47
2018-10-01T02:09:07.109Z,2.60
2018-10-01T02:11:34.982Z,2.73
2018-10-01T02:14:02.883Z,2.27
2018-10-01T02:16:30.665Z,2.73
2018-10-01T02:18:58.461Z,2.60
2018-10-01T02:21:26.353Z,2.43
2018-10-01T02:23:54.181Z,2.70
2018-10-01T02:26:21.989Z,2.63
2018-10-01T02:28:49.757Z,2.60
2018-10-01T02:31:17.577Z,2.57
2018-10-01T02:33:45.386Z,2.57
2018-10-01T02:36:13.240Z,2.60
2018-10-01T02:38:41.158Z,2.83
2018-10-01T02:41:09.163Z,2.60
2018-10-01T02:43:37.287Z,2.30
2018-10-01T02:46:05.100Z,2.60
2018-10-01T02:48:32.955Z,2.10
2018-10-01T02:51:01.209Z,2.43
2018-10-01T02:53:34.429Z,2.33
2018-10-01T02:56:02.348Z,2.30
2018-10-01T02:58:30.152Z,2.57
2018-10-01T03:00:58.001Z,2.70
2018-10-01T03:03:25.798Z,2.63
2018-10-01T03:05:53.562Z,2.63
2018-10-01T03:08:21.494Z,3.00
2018-10-01T03:10:49.581Z,2.70
2018-10-01T03:13:17.379Z,2.80
2018-10-01T03:15:45.161Z,2.50
2018-10-01T03:18:12.997Z,2.57
2018-10-01T03:20:40.781Z,2.40
2018-10-01T03:23:08.819Z,2.30
2018-10-01T03:25:36.658Z,2.80
2018-10-01T03:28:04.461Z,2.60
2018-10-01T03:30:32.216Z,2.70
2018-10-01T03:33:00.014Z,2.60
2018-10-01T03:35:27.808Z,2.90
2018-10-01T03:37:55.581Z,2.70
2018-10-01T03:40:23.373Z,2.67
2018-10-01T03:42:51.142Z,3.20
2018-10-01T03:45:18.931Z,2.93
2018-10-01T03:47:46.706Z,2.77
2018-10-01T03:50:14.518Z,2.80
2018-10-01T03:52:42.315Z,2.40
2018-10-01T03:55:10.254Z,2.50
2018-10-01T03:57:38.037Z,2.40
2018-10-01T04:00:05.898Z,2.47
2018-10-01T04:02:33.889Z,2.30
2018-10-01T04:05:01.677Z,2.40
2018-10-01T04:07:29.481Z,2.33
2018-10-01T04:09:57.245Z,2.20
2018-10-01T04:12:25.029Z,2.53
2018-10-01T04:14:52.850Z,2.47
2018-10-01T04:17:20.637Z,2.40
2018-10-01T04:19:48.455Z,2.30
2018-10-01T04:22:16.268Z,2.33
2018-10-01T04:24:44.077Z,1.90
2018-10-01T04:27:11.886Z,2.13
2018-10-01T04:29:39.737Z,2.40
2018-10-01T04:32:07.637Z,2.90
2018-10-01T04:34:35.552Z,3.20
2018-10-01T04:37:03.343Z,2.80
2018-10-01T04:39:31.215Z,3.10
2018-10-01T04:41:59.042Z,2.70
2018-10-01T04:44:26.846Z,2.73
2018-10-01T04:46:54.723Z,2.83
2018-10-01T04:49:22.554Z,3.07
2018-10-01T04:51:50.340Z,3.17
2018-10-01T04:54:18.175Z,2.87
2018-10-01T04:56:45.944Z,2.93
2018-10-01T04:59:13.725Z,3.07
2018-10-01T05:01:41.501Z,2.80
2018-10-01T05:04:09.340Z,3.00
2018-10-01T05:06:37.246Z,2.70
2018-10-01T05:09:07.589Z,3.07
2018-10-01T05:11:35.350Z,3.30
2018-10-01T05:14:03.157Z,3.03
2018-10-01T05:16:30.970Z,3.50
2018-10-01T05:18:58.981Z,3.20
2018-10-01T05:21:26.738Z,4.00
2018-10-01T05:23:54.537Z,4.17
2018-10-01T05:26:22.345Z,4.37
2018-10-01T05:28:50.121Z,3.37
2018-10-01T05:31:17.884Z,3.20
2018-10-01T05:33:45.659Z,3.20
2018-10-01T05:36:13.482Z,3.30
2018-10-01T05:38:41.341Z,3.67
2018-10-01T05:41:09.196Z,3.70
2018-10-01T05:43:37.289Z,3.37
2018-10-01T05:46:05.169Z,3.93
2018-10-01T05:48:32.940Z,3.80
2018-10-01T05:51:00.737Z,3.83
2018-10-01T05:53:28.521Z,3.93
2018-10-01T05:55:56.401Z,3.87
2018-10-01T05:58:24.185Z,4.20
2018-10-01T06:00:52.416Z,3.83
2018-10-01T06:03:20.254Z,4.67
2018-10-01T06:05:48.022Z,4.13
2018-10-01T06:08:15.794Z,4.67
2018-10-01T06:10:43.684Z,4.90
2018-10-01T06:13:11.629Z,4.67
2018-10-01T06:15:39.632Z,4.40
2018-10-01T06:18:07.707Z,4.23
2018-10-01T06:20:35.567Z,4.77
2018-10-01T06:23:03.379Z,4.77
2018-10-01T06:25:31.140Z,5.40
2018-10-01T06:27:59.066Z,5.33
2018-10-01T06:30:26.820Z,5.30
2018-10-01T06:32:54.634Z,5.63
2018-10-01T06:35:22.429Z,5.93
2018-10-01T06:37:50.203Z,5.80
2018-10-01T06:40:18.000Z,5.30
2018-10-01T06:42:45.860Z,5.50
2018-10-01T06:45:13.766Z,4.90
2018-10-01T06:47:41.651Z,5.67
2018-10-01T06:50:09.570Z,5.30
2018-10-01T06:52:37.375Z,5.50
2018-10-01T06:55:05.201Z,5.50
2018-10-01T06:57:34.675Z,5.23
2018-10-01T07:00:02.586Z,5.40
2018-10-01T07:02:30.416Z,5.63
2018-10-01T07:04:58.429Z,5.90
2018-10-01T07:07:26.232Z,6.60
2018-10-01T07:09:54.000Z,6.10
2018-10-01T07:12:21.780Z,5.90
2018-10-01T07:14:49.553Z,5.70
2018-10-01T07:17:17.535Z,5.37
2018-10-01T07:19:45.217Z,5.50
2018-10-01T07:22:13.081Z,5.33
2018-10-01T07:24:40.925Z,5.30
2018-10-01T07:27:08.716Z,4.93
2018-10-01T07:29:36.516Z,5.27
2018-10-01T07:32:04.367Z,5.27
2018-10-01T07:34:32.160Z,4.93
2018-10-01T07:37:00.089Z,5.00
2018-10-01T07:39:28.701Z,5.40
2018-10-01T07:41:56.456Z,4.70
2018-10-01T07:44:24.258Z,4.73
2018-10-01T07:46:52.038Z,5.67
2018-10-01T07:49:19.802Z,4.50
2018-10-01T07:51:47.638Z,5.90
2018-10-01T07:54:15.433Z,6.90
2018-10-01T07:56:43.289Z,6.00
2018-10-01T07:59:11.191Z,5.37
2018-10-01T08:01:39.035Z,5.17
2018-10-01T08:04:06.905Z,4.83
2018-10-01T08:06:34.688Z,5.20
2018-10-01T08:09:02.539Z,5.63
2018-10-01T08:11:30.340Z,5.97
2018-10-01T08:13:58.165Z,6.10
2018-10-01T08:16:25.889Z,5.50
2018-10-01T08:18:53.681Z,6.30
2018-10-01T08:21:21.477Z,5.60
2018-10-01T08:23:49.257Z,5.70
2018-10-01T08:26:17.155Z,6.50
2018-10-01T08:28:44.921Z,6.43
2018-10-01T08:31:12.734Z,6.50
2018-10-01T08:33:40.605Z,7.10
2018-10-01T08:36:08.429Z,7.13
2018-10-01T08:38:36.244Z,8.20
2018-10-01T08:41:04.119Z,8.00
2018-10-01T08:43:31.840Z,7.60
2018-10-01T08:45:59.633Z,8.30
2018-10-01T08:48:28.476Z,8.13
2018-10-01T08:51:03.696Z,8.03
2018-10-01T08:53:36.856Z,8.73
2018-10-01T08:56:04.675Z,8.93
2018-10-01T08:58:32.458Z,8.50
2018-10-01T09:01:00.256Z,9.97
2018-10-01T09:03:28.033Z,9.90
2018-10-01T09:05:55.798Z,10.10
2018-10-01T09:08:23.601Z,9.47
2018-10-01T09:10:52.204Z,10.00
2018-10-01T09:13:19.983Z,9.10
2018-10-01T09:15:47.812Z,9.43
2018-10-01T09:18:15.629Z,10.50
2018-10-01T09:20:44.322Z,11.47
2018-10-01T09:23:12.457Z,13.70
2018-10-01T09:25:40.247Z,14.57
2018-10-01T09:28:08.037Z,14.53
2018-10-01T09:30:35.874Z,14.57
2018-10-01T09:33:03.706Z,14.10
2018-10-01T09:35:31.584Z,14.40
2018-10-01T09:37:59.371Z,14.60
2018-10-01T09:40:27.192Z,14.57
2018-10-01T09:42:55.028Z,15.20
2018-10-01T09:45:22.961Z,14.93
2018-10-01T09:47:50.736Z,16.10
2018-10-01T09:50:18.564Z,15.73
2018-10-01T09:52:48.948Z,16.30
2018-10-01T09:55:16.783Z,15.13
2018-10-01T09:57:44.661Z,15.63
2018-10-01T10:00:12.628Z,14.30
2018-10-01T10:02:40.665Z,15.60
2018-10-01T10:05:08.498Z,14.87
2018-10-01T10:07:36.348Z,15.27
2018-10-01T10:10:04.225Z,16.97
2018-10-01T10:12:32.001Z,15.90
2018-10-01T10:14:59.786Z,25.20
2018-10-01T10:17:27.661Z,36.23
2018-10-01T10:19:55.536Z,17.67
2018-10-01T10:22:23.335Z,16.23
2018-10-01T10:24:51.113Z,16.93
2018-10-01T10:27:18.923Z,15.80
2018-10-01T10:29:46.709Z,16.07
2018-10-01T10:32:14.623Z,15.00
2018-10-01T10:34:42.413Z,15.00
2018-10-01T10:37:10.215Z,15.67
2018-10-01T10:39:38.070Z,17.40
2018-10-01T10:42:05.856Z,15.67
2018-10-01T10:44:33.689Z,17.77
2018-10-01T10:47:01.401Z,19.10
2018-10-01T10:49:29.181Z,22.60
2018-10-01T10:51:56.992Z,18.20
2018-10-01T10:54:24.761Z,17.87
2018-10-01T10:56:52.564Z,17.20
2018-10-01T10:59:20.366Z,17.23
2018-10-01T11:01:48.200Z,17.40
2018-10-01T11:04:16.013Z,15.70
2018-10-01T11:06:43.913Z,18.40
2018-10-01T11:09:11.879Z,17.63
2018-10-01T11:11:39.671Z,15.93
2018-10-01T11:14:07.888Z,16.43
2018-10-01T11:16:35.673Z,16.37
2018-10-01T11:19:03.564Z,17.70
2018-10-01T11:21:31.296Z,18.27
2018-10-01T11:23:59.032Z,18.07
2018-10-01T11:26:26.812Z,15.77
2018-10-01T11:28:54.637Z,19.40
2018-10-01T11:31:22.490Z,17.60
2018-10-01T11:33:50.242Z,18.30
2018-10-01T11:36:18.050Z,17.27
2018-10-01T11:38:45.878Z,17.53
2018-10-01T11:41:13.725Z,16.63
2018-10-01T11:43:41.531Z,18.50
2018-10-01T11:46:09.336Z,17.93
2018-10-01T11:48:37.086Z,17.33
2018-10-01T11:51:04.904Z,17.37
2018-10-01T11:53:32.676Z,16.30
2018-10-01T11:56:00.562Z,14.70
2018-10-01T11:58:28.357Z,14.93
2018-10-01T12:00:56.146Z,15.97
2018-10-01T12:03:23.972Z,16.10
2018-10-01T12:05:51.788Z,16.50
2018-10-01T12:08:19.560Z,16.57
2018-10-01T12:10:47.425Z,17.30
2018-10-01T12:13:15.277Z,17.43
2018-10-01T12:15:43.204Z,17.27
2018-10-01T12:18:11.673Z,17.97
2018-10-01T12:20:39.446Z,16.13
2018-10-01T12:23:08.038Z,17.53
2018-10-01T12:25:35.896Z,18.37
2018-10-01T12:28:03.789Z,17.77
2018-10-01T12:30:31.569Z,17.93
2018-10-01T12:32:59.337Z,19.00
2018-10-01T12:35:27.153Z,19.87
2018-10-01T12:37:55.077Z,18.40
2018-10-01T12:40:22.869Z,21.80
2018-10-01T12:42:50.721Z,22.37
2018-10-01T12:45:18.463Z,23.40
2018-10-01T12:47:46.272Z,22.93
2018-10-01T12:50:14.138Z,26.37
2018-10-01T12:52:41.996Z,25.60
2018-10-01T12:55:09.784Z,25.40
2018-10-01T12:57:37.612Z,25.83
2018-10-01T13:00:05.401Z,29.23
2018-10-01T13:02:33.145Z,28.37
2018-10-01T13:05:01.010Z,27.33
2018-10-01T13:07:28.822Z,29.47
2018-10-01T13:09:56.598Z,29.10
2018-10-01T13:12:24.437Z,32.43
2018-10-01T13:14:52.201Z,32.77
2018-10-01T13:17:19.968Z,33.30
2018-10-01T13:19:47.762Z,33.93
2018-10-01T13:22:15.540Z,32.33
2018-10-01T13:24:43.465Z,33.90
2018-10-01T13:27:11.276Z,33.70
2018-10-01T13:29:39.072Z,33.80
2018-10-01T13:32:07.110Z,32.80
2018-10-01T13:34:34.886Z,31.23
2018-10-01T13:37:03.008Z,33.20
2018-10-01T13:39:30.799Z,34.87
2018-10-01T13:41:58.608Z,37.57
2018-10-01T13:44:26.414Z,36.33
2018-10-01T13:46:54.196Z,36.97
2018-10-01T13:49:22.028Z,33.80
2018-10-01T13:51:49.820Z,33.43
2018-10-01T13:54:17.668Z,31.07
2018-10-01T13:56:45.508Z,32.87
2018-10-01T13:59:13.381Z,32.00
2018-10-01T14:01:41.202Z,33.03
2018-10-01T14:04:08.986Z,31.00
2018-10-01T14:06:36.814Z,31.50
2018-10-01T14:09:06.690Z,26.43
2018-10-01T14:11:34.484Z,24.13
2018-10-01T14:14:02.322Z,25.20
2018-10-01T14:16:30.110Z,25.70
2018-10-01T14:18:57.959Z,25.97
2018-10-01T14:21:25.799Z,21.73
2018-10-01T14:23:53.645Z,23.90
2018-10-01T14:26:21.614Z,22.43
2018-10-01T14:28:49.389Z,21.47
2018-10-01T14:31:17.193Z,23.67
2018-10-01T14:33:44.969Z,21.60
2018-10-01T14:36:12.855Z,22.23
2018-10-01T14:38:40.613Z,20.23
2018-10-01T14:41:08.401Z,19.40
2018-10-01T14:43:36.209Z,24.43
2018-10-01T14:46:04.107Z,21.43
2018-10-01T14:48:31.892Z,20.07
2018-10-01T14:50:59.739Z,21.13
2018-10-01T14:53:27.529Z,23.10
2018-10-01T14:55:55.338Z,21.87
2018-10-01T14:58:23.199Z,23.13
2018-10-01T15:00:51.014Z,23.87
2018-10-01T15:03:19.094Z,23.03
2018-10-01T15:05:46.875Z,23.43
2018-10-01T15:08:14.853Z,23.17
2018-10-01T15:10:42.794Z,24.57
2018-10-01T15:13:10.590Z,24.10
2018-10-01T15:15:38.394Z,24.00
2018-10-01T15:18:06.304Z,22.73
2018-10-01T15:20:34.041Z,23.63
2018-10-01T15:23:01.857Z,23.10
2018-10-01T15:25:29.630Z,21.27
2018-10-01T15:27:57.439Z,19.30
2018-10-01T15:30:25.256Z,20.23
2018-10-01T15:32:53.052Z,21.20
2018-10-01T15:35:20.858Z,19.17
2018-10-01T15:37:48.624Z,19.53
2018-10-01T15:40:16.464Z,18.97
2018-10-01T15:42:44.350Z,20.63
2018-10-01T15:45:12.157Z,18.53
2018-10-01T15:47:39.960Z,18.33
2018-10-01T15:50:07.825Z,17.53
2018-10-01T15:52:36.601Z,18.63
2018-10-01T15:55:04.561Z,18.30
2018-10-01T15:57:32.368Z,20.60
2018-10-01T16:00:00.233Z,17.13
2018-10-01T16:02:28.099Z,17.47
2018-10-01T16:04:55.912Z,16.80
2018-10-01T16:07:23.695Z,16.87
2018-10-01T16:09:51.476Z,17.30
2018-10-01T16:12:19.245Z,17.17
2018-10-01T16:14:47.137Z,17.40
2018-10-01T16:17:15.194Z,15.53
2018-10-01T16:19:43.115Z,16.23
2018-10-01T16:22:10.953Z,16.80
2018-10-01T16:24:38.721Z,16.27
2018-10-01T16:27:06.547Z,17.50
2018-10-01T16:29:34.348Z,18.07
2018-10-01T16:32:02.176Z,16.57
2018-10-01T16:34:29.994Z,16.03
2018-10-01T16:36:57.817Z,15.60
2018-10-01T16:39:25.641Z,17.03
2018-10-01T16:41:53.459Z,16.17
2018-10-01T16:44:21.297Z,17.53
2018-10-01T16:46:49.125Z,16.90
2018-10-01T16:49:17.008Z,15.07
2018-10-01T16:51:44.893Z,15.70
2018-10-01T16:54:12.840Z,15.37
2018-10-01T16:56:40.604Z,15.37
2018-10-01T16:59:08.369Z,16.47
2018-10-01T17:01:37.333Z,15.60
2018-10-01T17:04:05.145Z,16.97
2018-10-01T17:06:33.373Z,16.80
2018-10-01T17:09:01.706Z,17.57
2018-10-01T17:11:29.549Z,16.60
2018-10-01T17:13:57.486Z,16.03
2018-10-01T17:16:25.285Z,15.10
2018-10-01T17:18:53.065Z,13.93
2018-10-01T17:21:20.874Z,14.40
2018-10-01T17:23:48.740Z,13.13
2018-10-01T17:26:16.603Z,13.27
2018-10-01T17:28:44.686Z,14.13
2018-10-01T17:31:12.951Z,15.10
2018-10-01T17:33:40.825Z,13.97
2018-10-01T17:36:08.686Z,14.53
2018-10-01T17:38:37.444Z,13.20
2018-10-01T17:41:05.533Z,14.67
2018-10-01T17:43:33.393Z,14.03
2018-10-01T17:46:01.297Z,13.57
2018-10-01T17:48:29.177Z,14.40
2018-10-01T17:50:57.261Z,12.60
2018-10-01T17:53:25.042Z,15.00
2018-10-01T17:55:52.881Z,14.50
2018-10-01T17:58:20.727Z,13.73
2018-10-01T18:00:48.642Z,13.80
2018-10-01T18:03:16.604Z,14.17
2018-10-01T18:05:44.676Z,12.90
2018-10-01T18:08:12.752Z,13.67
2018-10-01T18:10:40.628Z,12.63
2018-10-01T18:13:08.397Z,13.17
2018-10-01T18:15:36.229Z,13.20
2018-10-01T18:18:04.095Z,12.37
2018-10-01T18:20:31.858Z,14.43
2018-10-01T18:22:59.674Z,16.53
2018-10-01T18:25:27.436Z,21.50
2018-10-01T18:27:55.269Z,20.30
2018-10-01T18:30:23.194Z,17.00
2018-10-01T18:32:50.977Z,15.77
2018-10-01T18:35:19.714Z,15.83
2018-10-01T18:37:47.577Z,16.77
2018-10-01T18:40:15.481Z,16.47
2018-10-01T18:42:43.605Z,15.30
2018-10-01T18:45:11.533Z,17.33
2018-10-01T18:47:39.405Z,17.83
2018-10-01T18:50:07.490Z,16.93
2018-10-01T18:52:35.405Z,18.20
2018-10-01T18:55:03.270Z,15.90
2018-10-01T18:57:31.112Z,14.03
2018-10-01T18:59:59.018Z,16.83
2018-10-01T19:02:26.873Z,16.13
2018-10-01T19:04:54.659Z,18.87
2018-10-01T19:07:22.473Z,19.90
2018-10-01T19:09:50.317Z,20.33
2018-10-01T19:12:18.269Z,20.30
2018-10-01T19:14:46.140Z,18.77
2018-10-01T19:17:13.993Z,19.47
2018-10-01T19:19:41.789Z,20.30
2018-10-01T19:22:09.583Z,21.00
2018-10-01T19:24:37.396Z,19.30
2018-10-01T19:27:05.278Z,18.97
2018-10-01T19:29:33.010Z,17.83
2018-10-01T19:32:00.813Z,19.90
2018-10-01T19:34:28.665Z,18.07
2018-10-01T19:36:56.453Z,17.70
2018-10-01T19:39:24.400Z,19.00
2018-10-01T19:41:52.157Z,15.80
2018-10-01T19:44:19.930Z,14.77
2018-10-01T19:46:47.942Z,15.37
2018-10-01T19:49:15.925Z,13.30
2018-10-01T19:51:43.841Z,10.47
2018-10-01T19:54:11.637Z,11.63
2018-10-01T19:56:39.454Z,11.13
2018-10-01T19:59:07.319Z,12.33
2018-10-01T20:01:35.118Z,11.80
2018-10-01T20:04:02.985Z,12.03
2018-10-01T20:06:30.841Z,10.33
2018-10-01T20:08:58.779Z,10.80
2018-10-01T20:11:26.586Z,8.50
2018-10-01T20:13:54.341Z,8.43
2018-10-01T20:16:22.125Z,8.50
2018-10-01T20:18:49.926Z,7.90
2018-10-01T20:21:17.844Z,7.63
2018-10-01T20:23:45.892Z,7.87
2018-10-01T20:26:13.800Z,8.73
2018-10-01T20:28:41.871Z,7.30
2018-10-01T20:31:09.401Z,7.60
2018-10-01T20:33:37.182Z,7.87
2018-10-01T20:36:05.173Z,8.37
2018-10-01T20:38:32.969Z,8.70
2018-10-01T20:41:01.008Z,7.80
2018-10-01T20:43:28.765Z,8.03
2018-10-01T20:45:56.613Z,8.10
2018-10-01T20:48:24.444Z,8.80
2018-10-01T20:50:52.549Z,8.70
2018-10-01T20:53:20.466Z,7.80
2018-10-01T20:55:48.326Z,9.27
2018-10-01T20:58:16.449Z,9.00
2018-10-01T21:00:44.472Z,8.07
2018-10-01T21:03:12.351Z,8.97
2018-10-01T21:05:40.137Z,7.60
2018-10-01T21:08:07.933Z,7.73
2018-10-01T21:10:35.773Z,6.90
2018-10-01T21:13:03.642Z,7.30
2018-10-01T21:15:31.602Z,6.93
2018-10-01T21:17:59.390Z,6.70
2018-10-01T21:20:27.330Z,6.90
2018-10-01T21:22:55.386Z,6.67
2018-10-01T21:25:23.185Z,7.50
2018-10-01T21:27:51.062Z,7.10
2018-10-01T21:30:19.044Z,7.47
2018-10-01T21:32:47.129Z,7.90
2018-10-01T21:35:16.257Z,9.00
2018-10-01T21:37:44.247Z,8.80
2018-10-01T21:40:13.921Z,7.83
2018-10-01T21:42:41.959Z,7.83
2018-10-01T21:45:10.981Z,8.07
2018-10-01T21:47:38.780Z,8.60
2018-10-01T21:50:06.786Z,9.00
2018-10-01T21:52:34.567Z,7.57
2018-10-01T21:55:03.794Z,8.30
2018-10-01T21:57:31.833Z,8.43
2018-10-01T21:59:59.875Z,8.10
2018-10-01T22:02:27.652Z,9.43
2018-10-01T22:04:55.481Z,8.83
2018-10-01T22:07:24.633Z,10.07
2018-10-01T22:09:52.444Z,10.17
2018-10-01T22:12:20.306Z,9.50
2018-10-01T22:14:48.165Z,8.50
2018-10-01T22:17:16.147Z,8.10
2018-10-01T22:19:43.990Z,7.10
2018-10-01T22:22:11.773Z,7.47
2018-10-01T22:24:39.660Z,7.37
2018-10-01T22:27:07.514Z,6.50
2018-10-01T22:29:35.357Z,6.87
2018-10-01T22:32:03.169Z,7.00
2018-10-01T22:34:30.973Z,6.30
2018-10-01T22:36:58.816Z,6.40
2018-10-01T22:39:26.655Z,6.07
2018-10-01T22:41:54.572Z,5.20
2018-10-01T22:44:22.400Z,5.43
2018-10-01T22:46:50.481Z,4.83
2018-10-01T22:49:18.268Z,5.23
2018-10-01T22:51:46.345Z,5.10
2018-10-01T22:54:14.241Z,5.63
2018-10-01T22:56:42.077Z,5.87
2018-10-01T22:59:09.862Z,5.87
2018-10-01T23:01:37.714Z,6.53
2018-10-01T23:04:05.522Z,5.90
2018-10-01T23:06:33.349Z,5.53
2018-10-01T23:09:01.236Z,6.30
2018-10-01T23:11:29.052Z,7.17
2018-10-01T23:13:56.913Z,8.40
2018-10-01T23:16:24.725Z,9.03
2018-10-01T23:18:52.517Z,8.53
2018-10-01T23:21:20.368Z,7.20
2018-10-01T23:23:48.235Z,7.63
2018-10-01T23:26:16.252Z,6.07
2018-10-01T23:28:44.029Z,5.27
2018-10-01T23:31:11.821Z,5.00
2018-10-01T23:33:40.152Z,4.57
2018-10-01T23:36:07.948Z,3.97
2018-10-01T23:38:35.819Z,4.57
2018-10-01T23:41:03.551Z,5.50
2018-10-01T23:43:31.309Z,5.33
2018-10-01T23:45:59.088Z,5.20
2018-10-01T23:48:26.869Z,5.13
2018-10-01T23:50:54.669Z,4.67
2018-10-01T23:53:22.451Z,5.90
2018-10-01T23:55:50.356Z,4.80
2018-10-01T23:58:18.200Z,5.43
